Standish, Maine
Current Conditions -  °F | °C
As of 2:51 PM on Wednesday 28 Jan 2015 (Local Time) from KPWM Reporting Station
Broken Clouds Broken Clouds  
Wind Chill: -10°   Ceiling: 10000
Heat Index: -4°   Visibility: 10mi
Dew Point: -12°   Wind: 12mph
Humidity: 53%   Direction: 310°NW
Pressure: 29.96"   Gusts: NA
Location:  43.74°N, 70.55°W
Report Text: KPWM 281951Z 31010KT 10SM BKN100 M04/M12 A2996 RMK AO2 SLP147 T10391122
Loading
Personal Weather Stations






























Interactive Weather Map New forecast layout! Learn more

10-Day Weather Forecast

Advertisements
Track Severe Weather on mobile